createdAt,value
2023-05-05T00:00:39.087Z,0
2023-05-05T00:01:55.290Z,0
2023-05-05T00:02:53.493Z,0
2023-05-05T00:04:27.665Z,0
2023-05-05T00:05:25.879Z,0
2023-05-05T00:07:00.000Z,0
2023-05-05T00:08:16.256Z,0
2023-05-05T00:09:32.455Z,0
2023-05-05T00:10:48.000Z,0
2023-05-05T00:12:31.000Z,0
2023-05-05T00:13:21.026Z,0
2023-05-05T00:14:36.000Z,0
2023-05-05T00:15:52.431Z,0
2023-05-05T00:17:08.614Z,0
2023-05-05T00:18:06.825Z,0
2023-05-05T00:19:40.997Z,0
2023-05-05T00:21:23.000Z,0
2023-05-05T00:22:13.000Z,0
2023-05-05T00:23:29.597Z,0
2023-05-05T00:24:45.774Z,0
2023-05-05T00:26:28.000Z,0
2023-05-05T00:27:18.000Z,0
2023-05-05T00:28:16.370Z,0
2023-05-05T00:29:50.000Z,0
2023-05-05T00:31:06.738Z,0
2023-05-05T00:32:22.932Z,0
2023-05-05T00:33:39.119Z,0
2023-05-05T00:34:54.000Z,0
2023-05-05T00:36:10.545Z,0
2023-05-05T00:37:26.000Z,0
2023-05-05T00:38:24.931Z,0
2023-05-05T00:39:59.000Z,0
2023-05-05T00:40:57.317Z,0
2023-05-05T00:42:31.510Z,0
2023-05-05T00:43:47.685Z,0
2023-05-05T00:45:03.000Z,0
2023-05-05T00:46:20.000Z,0
2023-05-05T00:47:36.278Z,0
2023-05-05T00:48:52.000Z,0
2023-05-05T00:50:08.000Z,0
2023-05-05T00:51:24.000Z,0
2023-05-05T00:52:41.000Z,0
2023-05-05T00:53:57.233Z,0
2023-05-05T00:55:12.000Z,0
2023-05-05T00:56:28.626Z,0
2023-05-05T00:57:26.842Z,0
2023-05-05T00:58:43.035Z,0
2023-05-05T01:00:17.000Z,0
2023-05-05T01:01:33.000Z,0
2023-05-05T01:02:49.598Z,0
2023-05-05T01:03:47.807Z,0
2023-05-05T01:05:21.000Z,0
2023-05-05T01:06:19.215Z,0
2023-05-05T01:07:53.000Z,0
2023-05-05T01:08:51.600Z,0
2023-05-05T01:10:25.000Z,0
2023-05-05T01:11:41.986Z,0
2023-05-05T01:12:58.158Z,0
2023-05-05T01:14:14.372Z,0
2023-05-05T01:15:30.000Z,0
2023-05-05T01:16:46.754Z,0
2023-05-05T01:18:02.000Z,0
2023-05-05T01:19:19.136Z,0
2023-05-05T01:20:35.331Z,0
2023-05-05T01:21:51.508Z,0
2023-05-05T01:23:06.000Z,0
2023-05-05T01:24:04.931Z,0
2023-05-05T01:25:39.000Z,0
2023-05-05T01:26:55.000Z,0
2023-05-05T01:28:11.000Z,0
2023-05-05T01:29:27.703Z,0
2023-05-05T01:30:43.000Z,0
2023-05-05T01:32:00.000Z,0
2023-05-05T01:33:16.261Z,0
2023-05-05T01:34:32.455Z,0
2023-05-05T01:35:48.655Z,0
2023-05-05T01:36:46.861Z,0
2023-05-05T01:38:21.000Z,0
2023-05-05T01:39:37.247Z,0
2023-05-05T01:40:53.000Z,0
2023-05-05T01:42:08.000Z,0
2023-05-05T01:43:24.843Z,0
2023-05-05T01:44:41.029Z,0
2023-05-05T01:45:57.000Z,0
2023-05-05T01:47:13.408Z,0
2023-05-05T01:48:11.615Z,0
2023-05-05T01:49:27.808Z,0
2023-05-05T01:51:01.981Z,0
2023-05-05T01:52:18.000Z,0
2023-05-05T01:53:34.386Z,0
2023-05-05T01:54:32.580Z,0
2023-05-05T01:56:06.755Z,0
2023-05-05T01:57:22.954Z,0
2023-05-05T01:58:20.175Z,0
2023-05-05T01:59:36.368Z,0
2023-05-05T02:01:10.561Z,0
2023-05-05T02:02:26.740Z,0
2023-05-05T02:03:42.932Z,0
2023-05-05T02:04:59.000Z,0
2023-05-05T02:06:15.000Z,0
2023-05-05T02:07:31.505Z,0
2023-05-05T02:08:47.000Z,0
2023-05-05T02:09:45.913Z,0
2023-05-05T02:11:20.105Z,0
2023-05-05T02:12:36.282Z,0
2023-05-05T02:13:52.493Z,0
2023-05-05T02:15:08.687Z,0
2023-05-05T02:16:24.000Z,0
2023-05-05T02:17:41.000Z,0
2023-05-05T02:18:57.000Z,0
2023-05-05T02:20:13.449Z,0
2023-05-05T02:21:55.000Z,0
2023-05-05T02:22:26.868Z,0
2023-05-05T02:24:01.063Z,0
2023-05-05T02:24:59.258Z,0
2023-05-05T02:26:33.442Z,0
2023-05-05T02:27:49.640Z,0
2023-05-05T02:29:05.000Z,0
2023-05-05T02:30:22.000Z,0
2023-05-05T02:31:38.000Z,0
2023-05-05T02:32:36.427Z,0
2023-05-05T02:34:10.622Z,0
2023-05-05T02:35:08.817Z,0
2023-05-05T02:36:25.013Z,0
2023-05-05T02:37:41.207Z,0
2023-05-05T02:39:14.000Z,0
2023-05-05T02:40:12.613Z,0
2023-05-05T02:41:46.000Z,0
2023-05-05T02:43:03.000Z,0
2023-05-05T02:44:19.000Z,0
2023-05-05T02:45:17.393Z,0
2023-05-05T02:46:51.589Z,0
2023-05-05T02:47:49.784Z,0
2023-05-05T02:49:23.000Z,0
2023-05-05T02:50:40.166Z,0
2023-05-05T02:51:56.370Z,0
2023-05-05T02:52:54.564Z,0
2023-05-05T02:54:28.760Z,4
2023-05-05T02:55:44.000Z,4
2023-05-05T02:57:01.000Z,0
2023-05-05T02:57:59.345Z,0
2023-05-05T02:59:32.540Z,4
2023-05-05T03:00:48.000Z,4
2023-05-05T03:02:04.000Z,4
2023-05-05T03:03:21.000Z,4
2023-05-05T03:04:37.000Z,8
2023-05-05T03:05:53.521Z,8
2023-05-05T03:07:09.727Z,8
2023-05-05T03:08:25.921Z,12
2023-05-05T03:09:42.000Z,12
2023-05-05T03:10:40.312Z,16
2023-05-05T03:12:41.000Z,16
2023-05-05T03:13:30.695Z,16
2023-05-05T03:14:46.000Z,24
2023-05-05T03:16:03.093Z,24
2023-05-05T03:17:19.000Z,28
2023-05-05T03:18:17.483Z,32
2023-05-05T03:19:51.800Z,40
2023-05-05T03:21:07.995Z,48
2023-05-05T03:22:24.000Z,52
2023-05-05T03:23:22.385Z,60
2023-05-05T03:24:56.000Z,68
2023-05-05T03:26:12.760Z,76
2023-05-05T03:27:28.951Z,88
2023-05-05T03:28:27.166Z,96
2023-05-05T03:29:43.362Z,104
2023-05-05T03:30:59.557Z,116
2023-05-05T03:32:33.000Z,128
2023-05-05T03:33:49.000Z,144
2023-05-05T03:35:06.143Z,156
2023-05-05T03:36:04.338Z,172
2023-05-05T03:37:37.000Z,188
2023-05-05T03:38:35.743Z,204
2023-05-05T03:40:09.000Z,224
2023-05-05T03:41:26.123Z,244
2023-05-05T03:42:42.312Z,260
2023-05-05T03:43:58.509Z,280
2023-05-05T03:45:14.720Z,300
2023-05-05T03:46:30.915Z,324
2023-05-05T03:47:47.000Z,348
2023-05-05T03:48:45.305Z,372
2023-05-05T03:50:19.492Z,400
2023-05-05T03:51:17.696Z,428
2023-05-05T03:52:51.000Z,456
2023-05-05T03:54:08.069Z,488
2023-05-05T03:55:23.000Z,516
2023-05-05T03:56:21.492Z,552
2023-05-05T03:57:55.673Z,580
2023-05-05T03:59:11.883Z,616
2023-05-05T04:00:10.078Z,652
2023-05-05T04:01:44.257Z,688
2023-05-05T04:03:00.000Z,728
2023-05-05T04:04:16.000Z,768
2023-05-05T04:05:32.000Z,816
2023-05-05T04:06:49.037Z,868
2023-05-05T04:08:05.234Z,928
2023-05-05T04:09:03.445Z,1000
2023-05-05T04:10:37.000Z,1044
2023-05-05T04:11:53.835Z,1072
2023-05-05T04:13:10.031Z,1092
2023-05-05T04:14:26.218Z,1156
2023-05-05T04:15:41.433Z,1176
2023-05-05T04:16:39.633Z,1208
2023-05-05T04:18:13.000Z,1264
2023-05-05T04:19:30.004Z,1352
2023-05-05T04:20:46.218Z,1460
2023-05-05T04:22:02.397Z,1556
2023-05-05T04:23:18.596Z,1640
2023-05-05T04:24:34.000Z,1668
2023-05-05T04:25:50.989Z,1692
2023-05-05T04:27:07.174Z,1820
2023-05-05T04:28:23.385Z,1940
2023-05-05T04:29:21.585Z,2012
2023-05-05T04:30:55.772Z,2052
2023-05-05T04:32:12.000Z,2100
2023-05-05T04:33:28.000Z,2120
2023-05-05T04:34:26.484Z,2140
2023-05-05T04:36:00.000Z,2148
2023-05-05T04:37:16.000Z,2180
2023-05-05T04:38:33.000Z,2200
2023-05-05T04:39:49.252Z,2216
2023-05-05T04:41:05.460Z,2020
2023-05-05T04:42:03.654Z,2116
2023-05-05T04:43:37.840Z,2148
2023-05-05T04:44:54.028Z,2336
2023-05-05T04:46:10.239Z,2392
2023-05-05T04:47:26.434Z,2400
2023-05-05T04:48:42.000Z,2396
2023-05-05T04:49:58.000Z,2280
2023-05-05T04:51:41.000Z,2196
2023-05-05T04:52:31.000Z,2108
2023-05-05T04:53:47.409Z,2232
2023-05-05T04:54:45.603Z,2552
2023-05-05T04:56:19.000Z,2600
2023-05-05T04:57:36.097Z,2308
2023-05-05T04:58:52.301Z,2396
2023-05-05T05:00:08.499Z,2728
2023-05-05T05:01:24.694Z,2796
2023-05-05T05:02:40.894Z,2716
2023-05-05T05:03:57.000Z,2744
2023-05-05T05:05:13.279Z,3032
2023-05-05T05:06:29.000Z,3076
2023-05-05T05:07:45.654Z,3120
2023-05-05T05:08:43.869Z,2912
2023-05-05T05:10:18.059Z,2916
2023-05-05T05:11:34.000Z,3316
2023-05-05T05:12:50.437Z,3348
2023-05-05T05:14:06.641Z,3376
2023-05-05T05:15:21.000Z,3396
2023-05-05T05:16:38.054Z,3428
2023-05-05T05:17:54.250Z,3472
2023-05-05T05:19:10.000Z,3512
2023-05-05T05:20:26.620Z,3548
2023-05-05T05:21:41.843Z,3584
2023-05-05T05:22:40.052Z,3632
2023-05-05T05:24:14.240Z,3672
2023-05-05T05:25:12.442Z,3712
2023-05-05T05:26:46.637Z,3748
2023-05-05T05:28:02.000Z,3772
2023-05-05T05:29:19.012Z,3816
2023-05-05T05:30:35.207Z,3860
2023-05-05T05:31:51.409Z,3848
2023-05-05T05:32:49.612Z,3964
2023-05-05T05:34:23.000Z,3992
2023-05-05T05:35:40.001Z,4008
2023-05-05T05:36:56.190Z,4028
2023-05-05T05:38:12.376Z,4048
2023-05-05T05:39:28.587Z,4092
2023-05-05T05:40:44.000Z,4108
2023-05-05T05:42:00.000Z,4140
2023-05-05T05:43:17.157Z,4144
2023-05-05T05:44:32.378Z,4156
2023-05-05T05:45:30.576Z,4164
2023-05-05T05:47:04.000Z,4172
2023-05-05T05:48:02.966Z,4196
2023-05-05T05:49:37.000Z,4196
2023-05-05T05:50:53.356Z,4100
2023-05-05T05:52:09.546Z,3808
2023-05-05T05:53:25.000Z,4052
2023-05-05T05:54:41.932Z,4304
2023-05-05T05:55:40.135Z,4436
2023-05-05T05:57:14.000Z,4484
2023-05-05T05:58:12.525Z,4520
2023-05-05T05:59:46.719Z,4600
2023-05-05T06:00:43.930Z,4684
2023-05-05T06:02:18.114Z,4752
2023-05-05T06:03:34.303Z,4800
2023-05-05T06:04:50.000Z,4836
2023-05-05T06:06:06.000Z,4748
2023-05-05T06:07:22.888Z,4828
2023-05-05T06:08:39.000Z,4812
2023-05-05T06:09:55.000Z,4556
2023-05-05T06:11:11.489Z,3684
2023-05-05T06:12:27.000Z,3644
2023-05-05T06:13:25.880Z,3612
2023-05-05T06:15:00.058Z,3788
2023-05-05T06:15:58.270Z,3880
2023-05-05T06:17:32.458Z,3936
2023-05-05T06:18:47.000Z,3956
2023-05-05T06:20:03.000Z,4140
2023-05-05T06:21:20.054Z,3804
2023-05-05T06:22:36.262Z,3660
2023-05-05T06:23:52.436Z,3660
2023-05-05T06:25:08.643Z,4644
2023-05-05T06:26:24.843Z,4916
2023-05-05T06:27:41.042Z,4992
2023-05-05T06:28:57.221Z,4788
2023-05-05T06:30:13.427Z,4884
2023-05-05T06:31:29.000Z,4932
2023-05-05T06:32:45.803Z,5052
2023-05-05T06:34:02.017Z,5156
2023-05-05T06:35:18.000Z,5120
2023-05-05T06:36:34.389Z,5164
2023-05-05T06:37:49.602Z,5100
2023-05-05T06:39:05.802Z,5004
2023-05-05T06:40:22.001Z,4868
2023-05-05T06:41:38.191Z,4908
2023-05-05T06:42:54.000Z,4784
2023-05-05T06:44:10.000Z,4896
2023-05-05T06:45:26.784Z,4904
2023-05-05T06:46:24.985Z,5032
2023-05-05T06:47:59.180Z,5024
2023-05-05T06:48:57.375Z,5208
2023-05-05T06:50:31.000Z,5344
2023-05-05T06:51:29.765Z,5544
2023-05-05T06:53:03.958Z,5836
2023-05-05T06:54:20.138Z,5652
2023-05-05T06:56:01.000Z,5644
2023-05-05T06:56:51.000Z,5356
2023-05-05T06:58:07.752Z,5600
2023-05-05T06:59:23.938Z,5672
2023-05-05T07:00:40.133Z,5572
2023-05-05T07:01:38.344Z,4876
2023-05-05T07:03:12.537Z,4844
2023-05-05T07:04:10.735Z,4368
2023-05-05T07:05:44.000Z,4640
2023-05-05T07:06:43.127Z,4516
2023-05-05T07:08:17.000Z,4876
2023-05-05T07:09:33.000Z,4804
2023-05-05T07:10:49.705Z,4528
2023-05-05T07:12:31.000Z,4444
2023-05-05T07:13:21.122Z,4472
2023-05-05T07:14:37.298Z,4376
2023-05-05T07:15:53.000Z,4400
2023-05-05T07:17:09.709Z,4524
2023-05-05T07:18:07.905Z,4708
2023-05-05T07:19:24.100Z,4832
2023-05-05T07:20:58.000Z,4736
2023-05-05T07:22:14.000Z,4716
2023-05-05T07:23:57.000Z,4836
2023-05-05T07:24:46.000Z,4872
2023-05-05T07:26:03.073Z,4932
2023-05-05T07:27:01.274Z,5012
2023-05-05T07:28:34.000Z,5136
2023-05-05T07:29:50.670Z,5288
2023-05-05T07:31:06.868Z,5256
2023-05-05T07:32:23.066Z,5236
2023-05-05T07:33:39.000Z,5320
2023-05-05T07:34:55.000Z,5248
2023-05-05T07:36:11.000Z,5164
2023-05-05T07:37:27.856Z,5224
2023-05-05T07:38:44.042Z,5260
2023-05-05T07:40:00.228Z,5332
2023-05-05T07:41:16.443Z,5372
2023-05-05T07:42:32.000Z,5600
2023-05-05T07:43:48.000Z,5360
2023-05-05T07:45:05.000Z,5416
2023-05-05T07:46:21.000Z,5412
2023-05-05T07:47:37.420Z,5416
2023-05-05T07:48:53.606Z,5644
2023-05-05T07:50:08.815Z,5424
2023-05-05T07:51:25.000Z,5500
2023-05-05T07:52:23.219Z,5440
2023-05-05T07:53:57.408Z,5448
2023-05-05T07:54:55.609Z,5460
2023-05-05T07:56:29.790Z,5476
2023-05-05T07:57:28.000Z,5480
2023-05-05T07:59:02.000Z,5480
2023-05-05T08:00:18.392Z,5492
2023-05-05T08:01:34.000Z,5500
2023-05-05T08:02:32.782Z,5532
2023-05-05T08:04:06.965Z,5540
2023-05-05T08:05:23.168Z,5532
2023-05-05T08:06:39.491Z,5548
2023-05-05T08:07:55.667Z,5564
2023-05-05T08:09:11.876Z,5580
2023-05-05T08:10:54.000Z,5600
2023-05-05T08:11:44.270Z,5632
2023-05-05T08:13:00.000Z,5664
2023-05-05T08:14:16.000Z,5704
2023-05-05T08:15:14.858Z,5696
2023-05-05T08:16:49.000Z,5736
2023-05-05T08:17:47.249Z,5704
2023-05-05T08:19:21.428Z,5724
2023-05-05T08:20:19.640Z,5728
2023-05-05T08:21:53.000Z,5672
2023-05-05T08:23:10.000Z,5716
2023-05-05T08:24:26.217Z,5736
2023-05-05T08:25:41.000Z,5732
2023-05-05T08:26:57.000Z,5788
2023-05-05T08:28:13.000Z,5820
2023-05-05T08:29:30.000Z,5860
2023-05-05T08:30:46.212Z,5952
2023-05-05T08:32:02.000Z,5940
2023-05-05T08:33:18.000Z,5984
2023-05-05T08:34:34.000Z,6004
2023-05-05T08:35:33.001Z,6096
2023-05-05T08:37:07.196Z,6000
2023-05-05T08:38:23.391Z,6652
2023-05-05T08:39:39.582Z,6196
2023-05-05T08:40:55.000Z,6240
2023-05-05T08:42:11.972Z,6292
2023-05-05T08:43:27.185Z,6332
2023-05-05T08:44:43.000Z,6592
2023-05-05T08:45:41.577Z,5952
2023-05-05T08:47:15.000Z,6156
2023-05-05T08:48:31.951Z,6412
2023-05-05T08:49:48.000Z,6224
2023-05-05T08:51:04.359Z,6408
2023-05-05T08:52:20.000Z,6356
2023-05-05T08:53:36.746Z,6432
2023-05-05T08:54:52.939Z,6320
2023-05-05T08:56:09.140Z,6100
2023-05-05T08:57:25.324Z,6348
2023-05-05T08:58:23.530Z,6068
2023-05-05T08:59:57.835Z,6408
2023-05-05T09:00:56.042Z,6256
2023-05-05T09:02:30.227Z,6204
2023-05-05T09:03:46.000Z,6128
2023-05-05T09:05:02.613Z,6064
2023-05-05T09:06:00.820Z,6176
2023-05-05T09:07:35.015Z,6216
2023-05-05T09:08:51.210Z,6300
2023-05-05T09:10:07.000Z,6288
2023-05-05T09:11:05.600Z,6240
2023-05-05T09:12:39.000Z,6196
2023-05-05T09:13:37.989Z,6236
2023-05-05T09:15:12.184Z,6260
2023-05-05T09:16:28.380Z,6084
2023-05-05T09:17:44.561Z,6188
2023-05-05T09:18:41.787Z,6900
2023-05-05T09:20:15.000Z,6164
2023-05-05T09:21:32.172Z,6208
2023-05-05T09:22:48.000Z,6392
2023-05-05T09:23:46.566Z,6112
2023-05-05T09:25:20.745Z,6152
2023-05-05T09:26:18.956Z,6516
2023-05-05T09:27:53.000Z,6424
2023-05-05T09:29:09.345Z,6436
2023-05-05T09:30:25.000Z,6508
2023-05-05T09:31:41.720Z,6612
2023-05-05T09:32:57.932Z,6428
2023-05-05T09:34:14.109Z,6652
2023-05-05T09:35:30.317Z,6800
2023-05-05T09:36:28.517Z,6840
2023-05-05T09:38:01.000Z,6916
2023-05-05T09:38:59.929Z,6868
2023-05-05T09:40:34.000Z,6800
2023-05-05T09:41:50.000Z,6616
2023-05-05T09:43:06.517Z,6344
2023-05-05T09:44:22.000Z,7144
2023-05-05T09:45:38.000Z,6008
2023-05-05T09:46:55.095Z,5908
2023-05-05T09:48:11.000Z,6196
2023-05-05T09:49:09.493Z,6736
2023-05-05T09:50:43.689Z,6144
2023-05-05T09:51:59.868Z,6200
2023-05-05T09:53:16.000Z,6408
2023-05-05T09:54:32.000Z,7160
2023-05-05T09:55:48.000Z,7096
2023-05-05T09:57:04.000Z,7548
2023-05-05T09:58:20.859Z,7484
2023-05-05T09:59:37.052Z,7508
2023-05-05T10:00:53.000Z,7404
2023-05-05T10:01:51.445Z,7044
2023-05-05T10:03:24.000Z,6912
2023-05-05T10:04:22.852Z,6552
2023-05-05T10:05:57.038Z,7000
2023-05-05T10:07:13.000Z,6896
2023-05-05T10:08:29.437Z,7548
2023-05-05T10:09:45.615Z,6792
2023-05-05T10:11:01.828Z,7028
2023-05-05T10:12:18.000Z,6716
2023-05-05T10:13:34.219Z,7068
2023-05-05T10:14:32.414Z,6948
2023-05-05T10:16:06.000Z,7452
2023-05-05T10:17:04.804Z,6444
2023-05-05T10:18:39.000Z,6832
2023-05-05T10:19:55.000Z,6892
2023-05-05T10:21:11.000Z,7172
2023-05-05T10:22:27.000Z,7240
2023-05-05T10:23:43.000Z,7236
2023-05-05T10:24:59.972Z,7164
2023-05-05T10:26:16.000Z,7132
2023-05-05T10:27:14.365Z,7872
2023-05-05T10:28:47.000Z,7024
2023-05-05T10:29:45.772Z,6920
2023-05-05T10:31:19.000Z,6872
2023-05-05T10:32:36.000Z,7080
2023-05-05T10:33:52.000Z,7240
2023-05-05T10:35:08.000Z,7208
2023-05-05T10:36:24.741Z,7004
2023-05-05T10:37:40.000Z,7392
2023-05-05T10:38:57.000Z,7144
2023-05-05T10:39:55.336Z,7060
2023-05-05T10:41:29.531Z,7016
2023-05-05T10:42:27.727Z,7012
2023-05-05T10:44:01.000Z,7056
2023-05-05T10:45:18.000Z,7556
2023-05-05T10:46:34.000Z,7096
2023-05-05T10:47:50.510Z,7060
2023-05-05T10:49:06.000Z,7700
2023-05-05T10:50:22.897Z,7180
2023-05-05T10:51:39.091Z,7212
2023-05-05T10:52:55.291Z,7344
2023-05-05T10:54:11.000Z,7508
2023-05-05T10:55:09.683Z,7472
2023-05-05T10:56:43.870Z,7416
2023-05-05T10:58:00.000Z,7520
2023-05-05T10:59:16.254Z,8080
2023-05-05T11:00:31.476Z,7592
2023-05-05T11:01:47.000Z,7476
2023-05-05T11:03:03.854Z,7604
2023-05-05T11:04:20.000Z,7644
2023-05-05T11:05:18.261Z,7660
2023-05-05T11:06:52.454Z,7688
2023-05-05T11:07:50.653Z,7896
2023-05-05T11:09:24.000Z,8164
2023-05-05T11:10:41.000Z,8096
2023-05-05T11:11:57.228Z,8236
2023-05-05T11:13:13.000Z,8288
2023-05-05T11:14:29.000Z,8372
2023-05-05T11:15:27.825Z,7524
2023-05-05T11:17:02.000Z,7840
2023-05-05T11:18:18.210Z,8300
2023-05-05T11:19:34.402Z,8468
2023-05-05T11:20:32.608Z,8696
2023-05-05T11:22:06.000Z,8872
2023-05-05T11:23:23.000Z,8532
2023-05-05T11:24:39.000Z,8044
2023-05-05T11:25:55.377Z,7240
2023-05-05T11:27:11.000Z,7092
2023-05-05T11:28:27.778Z,7600
2023-05-05T11:29:43.000Z,8220
2023-05-05T11:31:00.000Z,8644
2023-05-05T11:32:16.364Z,8396
2023-05-05T11:33:14.558Z,8236
2023-05-05T11:34:47.766Z,8108
2023-05-05T11:36:03.964Z,7948
2023-05-05T11:37:46.000Z,7480
2023-05-05T11:38:36.353Z,7416
2023-05-05T11:39:52.000Z,7472
2023-05-05T11:41:08.732Z,7504
2023-05-05T11:42:24.928Z,7640
2023-05-05T11:43:23.134Z,7384
2023-05-05T11:44:57.328Z,6992
2023-05-05T11:46:13.000Z,7352
2023-05-05T11:47:29.718Z,7260
2023-05-05T11:48:45.000Z,7128
2023-05-05T11:50:02.000Z,7308
2023-05-05T11:51:18.000Z,7484
2023-05-05T11:52:34.000Z,8056
2023-05-05T11:53:50.000Z,8332
2023-05-05T11:55:33.000Z,7216
2023-05-05T11:56:23.052Z,8172
2023-05-05T11:57:38.278Z,9424
2023-05-05T11:58:36.473Z,10652
2023-05-05T12:00:10.000Z,11164
2023-05-05T12:01:26.000Z,10960
2023-05-05T12:02:43.000Z,11916
2023-05-05T12:03:59.245Z,10424
2023-05-05T12:05:15.420Z,8228
2023-05-05T12:06:31.000Z,7688
2023-05-05T12:07:47.000Z,7248
2023-05-05T12:08:46.015Z,5852
2023-05-05T12:10:20.197Z,6308
2023-05-05T12:11:36.401Z,6004
2023-05-05T12:12:52.000Z,7688
2023-05-05T12:14:08.000Z,8828
2023-05-05T12:15:24.960Z,9096
2023-05-05T12:16:40.176Z,8980
2023-05-05T12:17:56.000Z,8532
2023-05-05T12:19:12.561Z,8380
2023-05-05T12:20:28.750Z,8080
2023-05-05T12:21:44.000Z,8232
2023-05-05T12:23:01.142Z,8352
2023-05-05T12:24:17.339Z,8392
2023-05-05T12:25:33.536Z,8536
2023-05-05T12:26:49.729Z,8728
2023-05-05T12:28:05.911Z,9076
2023-05-05T12:29:48.000Z,8696
2023-05-05T12:30:38.000Z,8424
2023-05-05T12:31:54.484Z,8404
2023-05-05T12:33:10.672Z,8632
2023-05-05T12:34:26.882Z,8784
2023-05-05T12:35:42.077Z,8600
2023-05-05T12:36:40.285Z,8908
2023-05-05T12:38:14.475Z,8916
2023-05-05T12:39:30.000Z,8328
2023-05-05T12:40:46.000Z,7516
2023-05-05T12:42:03.046Z,7424
2023-05-05T12:43:19.000Z,7084
2023-05-05T12:44:35.000Z,7100
2023-05-05T12:45:51.635Z,7008
2023-05-05T12:46:49.828Z,7100
2023-05-05T12:48:24.000Z,6924
2023-05-05T12:49:22.213Z,6924
2023-05-05T12:50:56.388Z,6880
2023-05-05T12:52:12.000Z,6632
2023-05-05T12:53:10.793Z,6772
2023-05-05T12:54:44.975Z,6900
2023-05-05T12:56:00.000Z,6888
2023-05-05T12:57:16.374Z,7040
2023-05-05T12:58:32.580Z,7120
2023-05-05T12:59:48.757Z,7060
2023-05-05T13:01:04.000Z,7052
2023-05-05T13:02:03.158Z,7084
2023-05-05T13:03:37.000Z,7188
2023-05-05T13:04:53.000Z,7192
2023-05-05T13:06:09.733Z,7160
2023-05-05T13:07:25.909Z,7112
2023-05-05T13:08:42.000Z,7120
2023-05-05T13:09:58.300Z,7064
2023-05-05T13:11:14.000Z,6996
2023-05-05T13:12:30.688Z,6940
2023-05-05T13:13:45.895Z,7104
2023-05-05T13:14:44.100Z,7072
2023-05-05T13:16:18.000Z,7000
2023-05-05T13:17:34.000Z,7076
2023-05-05T13:18:50.000Z,7156
2023-05-05T13:19:48.872Z,7388
2023-05-05T13:21:23.065Z,7592
2023-05-05T13:22:39.000Z,8388
2023-05-05T13:23:55.000Z,8792
2023-05-05T13:25:11.000Z,9376
2023-05-05T13:26:27.818Z,9872
2023-05-05T13:27:44.013Z,10484
2023-05-05T13:29:00.000Z,10692
2023-05-05T13:30:16.417Z,11336
2023-05-05T13:31:32.593Z,13096
2023-05-05T13:32:48.803Z,18624
2023-05-05T13:34:05.000Z,21600
2023-05-05T13:35:21.000Z,16672
2023-05-05T13:36:37.371Z,15072
2023-05-05T13:37:53.563Z,13908
2023-05-05T13:39:08.000Z,13028
2023-05-05T13:40:24.961Z,12876
2023-05-05T13:41:41.000Z,12812
2023-05-05T13:42:57.365Z,11464
2023-05-05T13:44:13.000Z,11696
2023-05-05T13:45:29.731Z,11680
2023-05-05T13:46:45.944Z,11748
2023-05-05T13:48:02.120Z,11828
2023-05-05T13:49:18.000Z,11240
2023-05-05T13:50:16.523Z,11128
2023-05-05T13:51:50.715Z,11316
2023-05-05T13:52:48.909Z,11152
2023-05-05T13:54:22.000Z,10964
2023-05-05T13:55:38.000Z,11176
2023-05-05T13:56:54.000Z,9928
2023-05-05T13:58:10.693Z,9104
2023-05-05T13:59:26.878Z,8924
2023-05-05T14:00:43.089Z,8916
2023-05-05T14:01:59.284Z,8960
2023-05-05T14:03:15.466Z,8936
2023-05-05T14:04:31.000Z,8948
2023-05-05T14:06:14.000Z,8912
2023-05-05T14:07:04.045Z,8948
2023-05-05T14:08:20.249Z,8820
2023-05-05T14:09:36.000Z,9032
2023-05-05T14:10:52.625Z,9056
2023-05-05T14:12:08.813Z,9340
2023-05-05T14:13:24.025Z,9000
2023-05-05T14:14:40.227Z,8888
2023-05-05T14:15:56.426Z,8992
2023-05-05T14:17:12.000Z,8916
2023-05-05T14:18:28.800Z,8932
2023-05-05T14:19:45.000Z,9416
2023-05-05T14:21:01.000Z,9480
2023-05-05T14:22:17.373Z,9456
2023-05-05T14:23:33.570Z,9584
2023-05-05T14:24:49.775Z,9428
2023-05-05T14:26:05.964Z,9528
2023-05-05T14:27:22.000Z,9656
2023-05-05T14:28:38.339Z,9520
2023-05-05T14:29:53.000Z,9464
2023-05-05T14:31:09.738Z,9696
2023-05-05T14:32:25.000Z,9788
2023-05-05T14:33:42.000Z,9740
2023-05-05T14:34:58.000Z,10012
2023-05-05T14:36:14.523Z,9504
2023-05-05T14:37:30.724Z,9652
2023-05-05T14:38:28.918Z,9936
2023-05-05T14:39:45.111Z,9980
2023-05-05T14:41:19.293Z,9956
2023-05-05T14:42:35.498Z,9920
2023-05-05T14:43:33.691Z,9848
2023-05-05T14:45:07.881Z,9964
2023-05-05T14:46:24.000Z,9824
2023-05-05T14:47:40.000Z,9680
2023-05-05T14:48:56.447Z,9756
2023-05-05T14:50:12.000Z,9576
2023-05-05T14:51:10.850Z,8880
2023-05-05T14:52:44.000Z,8136
2023-05-05T14:54:00.242Z,7616
2023-05-05T14:55:16.436Z,7416
2023-05-05T14:56:14.641Z,7780
2023-05-05T14:57:48.834Z,7460
2023-05-05T14:59:05.000Z,7436
2023-05-05T15:00:21.000Z,7712
2023-05-05T15:01:37.000Z,7440
2023-05-05T15:02:53.600Z,7164
2023-05-05T15:03:51.799Z,6880
2023-05-05T15:05:25.000Z,6956
2023-05-05T15:06:24.374Z,6996
2023-05-05T15:07:58.554Z,7380
2023-05-05T15:08:56.760Z,7736
2023-05-05T15:10:30.000Z,7964
2023-05-05T15:11:47.146Z,8396
2023-05-05T15:13:03.338Z,9072
2023-05-05T15:14:19.514Z,9208
2023-05-05T15:15:35.725Z,9224
2023-05-05T15:16:33.918Z,9184
2023-05-05T15:18:08.111Z,9540
2023-05-05T15:19:24.285Z,9584
2023-05-05T15:20:40.000Z,10116
2023-05-05T15:21:38.690Z,10180
2023-05-05T15:23:12.874Z,10484
2023-05-05T15:24:28.000Z,10804
2023-05-05T15:25:44.000Z,10552
2023-05-05T15:27:00.469Z,10240
2023-05-05T15:28:16.000Z,10396
2023-05-05T15:29:32.850Z,10440
2023-05-05T15:30:49.000Z,10096
2023-05-05T15:32:05.000Z,10592
2023-05-05T15:33:47.000Z,9880
2023-05-05T15:34:19.636Z,9428
2023-05-05T15:35:53.000Z,8296
2023-05-05T15:37:10.000Z,8984
2023-05-05T15:38:26.211Z,7640
2023-05-05T15:39:42.391Z,7016
2023-05-05T15:40:58.000Z,6620
2023-05-05T15:42:14.000Z,8028
2023-05-05T15:43:30.000Z,7908
2023-05-05T15:44:46.197Z,7420
2023-05-05T15:46:02.385Z,8420
2023-05-05T15:47:00.583Z,6856
2023-05-05T15:48:34.000Z,6008
2023-05-05T15:49:50.971Z,5772
2023-05-05T15:51:07.000Z,5832
2023-05-05T15:52:05.357Z,6124
2023-05-05T15:53:39.534Z,5968
2023-05-05T15:54:55.736Z,5528
2023-05-05T15:56:11.914Z,5316
2023-05-05T15:57:10.129Z,5168
2023-05-05T15:58:44.000Z,5136
2023-05-05T15:59:42.515Z,4836
2023-05-05T16:01:16.692Z,4704
2023-05-05T16:02:32.000Z,4640
2023-05-05T16:03:49.000Z,4584
2023-05-05T16:05:05.286Z,4396
2023-05-05T16:06:20.000Z,4220
2023-05-05T16:07:36.666Z,4188
2023-05-05T16:08:52.866Z,4376
2023-05-05T16:09:51.072Z,3948
2023-05-05T16:11:07.264Z,4036
2023-05-05T16:12:23.457Z,3656
2023-05-05T16:13:57.649Z,3500
2023-05-05T16:15:13.000Z,3368
2023-05-05T16:16:30.035Z,3236
2023-05-05T16:17:28.228Z,3112
2023-05-05T16:19:02.420Z,3000
2023-05-05T16:20:18.000Z,2904
2023-05-05T16:21:34.805Z,2820
2023-05-05T16:22:51.000Z,2740
2023-05-05T16:24:07.171Z,2684
2023-05-05T16:25:22.392Z,2616
2023-05-05T16:26:20.593Z,2568
2023-05-05T16:27:54.000Z,2516
2023-05-05T16:29:10.000Z,2448
2023-05-05T16:30:27.159Z,2388
2023-05-05T16:31:43.353Z,2300
2023-05-05T16:32:59.539Z,2204
2023-05-05T16:34:15.000Z,2096
2023-05-05T16:35:13.948Z,1992
2023-05-05T16:36:48.000Z,1892
2023-05-05T16:37:46.335Z,1792
2023-05-05T16:39:20.506Z,1692
2023-05-05T16:40:36.000Z,1596
2023-05-05T16:41:52.000Z,1504
2023-05-05T16:43:35.000Z,1428
2023-05-05T16:44:25.303Z,1356
2023-05-05T16:45:41.492Z,1284
2023-05-05T16:46:56.696Z,1220
2023-05-05T16:48:12.900Z,1172
2023-05-05T16:49:29.081Z,1124
2023-05-05T16:50:45.271Z,1076
2023-05-05T16:52:01.000Z,1024
2023-05-05T16:53:17.674Z,980
2023-05-05T16:54:33.861Z,940
2023-05-05T16:55:50.061Z,896
2023-05-05T16:57:06.000Z,856
2023-05-05T16:58:04.448Z,828
2023-05-05T16:59:38.000Z,804
2023-05-05T17:00:54.000Z,780
2023-05-05T17:02:11.000Z,760
2023-05-05T17:03:27.000Z,740
2023-05-05T17:04:43.521Z,712
2023-05-05T17:05:59.000Z,684
2023-05-05T17:07:15.000Z,660
2023-05-05T17:08:14.113Z,632
2023-05-05T17:09:48.000Z,608
2023-05-05T17:11:04.000Z,576
2023-05-05T17:12:02.692Z,556
2023-05-05T17:13:36.865Z,528